Rancho Cucamonga, California
Current Conditions -  °F | °C
As of 6:53 AM on Saturday 20 Dec 2014 (Local Time) from KONT Reporting Station
Broken Clouds Broken Clouds  
Wind Chill: 48°   Ceiling: 20000
Heat Index: 48°   Visibility: 10mi
Dew Point: 42°   Wind: 0mph
Humidity: 80%   Direction: NA
Pressure: 30.17"   Gusts: NA
Location:  34.1°N, 117.57°W
Report Text: KONT 201453Z 00000KT 10SM FEW011 BKN200 09/06 A3017 RMK AO2 SLP216 T00890056 53007
Loading
Personal Weather Stations






























Interactive Weather Map New forecast layout! Learn more

10-Day Weather Forecast

Advertisements
Track Severe Weather on mobile